createdAt,value
2019-02-26T00:00:42.338Z,32.10
2019-02-26T00:03:09.009Z,36.50
2019-02-26T00:05:38.016Z,29.47
2019-02-26T00:08:06.629Z,34.47
2019-02-26T00:10:37.262Z,29.77
2019-02-26T00:13:05.466Z,34.37
2019-02-26T00:15:35.847Z,30.73
2019-02-26T00:18:07.461Z,31.27
2019-02-26T00:20:37.155Z,33.77
2019-02-26T00:23:05.021Z,35.50
2019-02-26T00:25:33.495Z,35.33
2019-02-26T00:28:02.069Z,39.03
2019-02-26T00:30:31.283Z,34.70
2019-02-26T00:33:02.879Z,37.93
2019-02-26T00:35:31.157Z,36.83
2019-02-26T00:37:59.625Z,34.13
2019-02-26T00:40:28.167Z,34.93
2019-02-26T00:42:59.374Z,37.67
2019-02-26T00:45:27.768Z,38.00
2019-02-26T00:47:57.329Z,42.70
2019-02-26T00:50:27.969Z,36.10
2019-02-26T00:52:57.056Z,41.10
2019-02-26T00:55:29.386Z,43.20
2019-02-26T00:57:56.969Z,42.33
2019-02-26T01:00:28.421Z,42.27
2019-02-26T01:02:57.067Z,40.67
2019-02-26T01:05:25.707Z,42.77
2019-02-26T01:07:54.461Z,41.67
2019-02-26T01:10:24.812Z,40.13
2019-02-26T01:12:53.465Z,50.57
2019-02-26T01:15:22.177Z,48.67
2019-02-26T01:17:50.726Z,41.70
2019-02-26T01:20:22.047Z,48.57
2019-02-26T01:22:49.732Z,47.17
2019-02-26T01:25:20.548Z,48.07
2019-02-26T01:27:52.618Z,44.77
2019-02-26T01:30:23.500Z,49.83
2019-02-26T01:32:48.937Z,49.73
2019-02-26T01:35:17.646Z,47.70
2019-02-26T01:37:46.169Z,55.57
2019-02-26T01:40:16.380Z,51.00
2019-02-26T01:42:50.154Z,54.10
2019-02-26T01:45:15.501Z,52.23
2019-02-26T01:47:46.249Z,54.00
2019-02-26T01:50:16.167Z,58.70
2019-02-26T01:52:44.945Z,54.87
2019-02-26T01:55:13.546Z,53.83
2019-02-26T01:57:43.390Z,57.60
2019-02-26T02:00:18.352Z,60.03
2019-02-26T02:02:47.066Z,52.27
2019-02-26T02:05:15.959Z,54.63
2019-02-26T02:07:46.682Z,53.90
2019-02-26T02:10:15.949Z,54.47
2019-02-26T02:12:44.637Z,61.90
2019-02-26T02:15:17.910Z,59.90
2019-02-26T02:17:45.467Z,56.17
2019-02-26T02:20:21.268Z,60.23
2019-02-26T02:22:47.331Z,60.67
2019-02-26T02:25:15.941Z,60.03
2019-02-26T02:27:47.571Z,60.17
2019-02-26T02:30:23.079Z,65.83
2019-02-26T02:32:53.644Z,60.87
2019-02-26T02:35:19.606Z,67.97
2019-02-26T02:37:50.811Z,72.73
2019-02-26T02:40:18.856Z,69.90
2019-02-26T02:42:49.252Z,70.23
2019-02-26T02:45:20.792Z,80.97
2019-02-26T02:47:47.930Z,82.07
2019-02-26T02:50:18.368Z,73.20
2019-02-26T02:52:46.796Z,75.47
2019-02-26T02:55:18.546Z,89.60
2019-02-26T02:57:48.679Z,79.47
2019-02-26T03:00:16.546Z,82.97
2019-02-26T03:02:46.494Z,85.83
2019-02-26T03:05:15.490Z,84.90
2019-02-26T03:07:46.051Z,85.77
2019-02-26T03:10:15.067Z,87.83
2019-02-26T03:12:47.635Z,91.27
2019-02-26T03:15:15.816Z,94.83
2019-02-26T03:17:44.449Z,92.57
2019-02-26T03:20:15.953Z,95.13
2019-02-26T03:22:46.708Z,94.33
2019-02-26T03:25:20.958Z,99.80
2019-02-26T03:27:48.272Z,102.90
2019-02-26T03:30:26.247Z,91.83
2019-02-26T03:32:55.745Z,93.63
2019-02-26T03:35:22.709Z,98.13
2019-02-26T03:37:52.409Z,91.23
2019-02-26T03:40:20.921Z,94.93
2019-02-26T03:42:50.307Z,105.07
2019-02-26T03:45:23.614Z,102.50
2019-02-26T03:47:49.266Z,103.43
2019-02-26T03:50:17.957Z,106.10
2019-02-26T03:52:46.518Z,106.67
2019-02-26T03:55:18.321Z,113.07
2019-02-26T03:57:47.555Z,121.53
2019-02-26T04:00:19.987Z,117.13
2019-02-26T04:02:51.218Z,122.13
2019-02-26T04:05:18.750Z,122.97
2019-02-26T04:07:49.868Z,124.27
2019-02-26T04:10:17.708Z,127.03
2019-02-26T04:12:48.752Z,125.17
2019-02-26T04:15:17.602Z,136.57
2019-02-26T04:17:46.253Z,123.23
2019-02-26T04:20:15.946Z,136.13
2019-02-26T04:22:49.008Z,137.03
2019-02-26T04:25:35.472Z,125.77
2019-02-26T04:28:11.666Z,129.97
2019-02-26T04:31:02.821Z,129.80
2019-02-26T04:33:53.755Z,130.90
2019-02-26T04:36:28.710Z,141.50
2019-02-26T04:39:22.119Z,131.07
2019-02-26T04:42:16.845Z,132.70
2019-02-26T04:45:09.038Z,131.00
2019-02-26T04:48:00.722Z,130.57
2019-02-26T04:50:32.278Z,126.57
2019-02-26T04:53:02.140Z,133.00
2019-02-26T04:55:32.275Z,125.67
2019-02-26T04:57:59.643Z,125.47
2019-02-26T05:00:30.468Z,143.60
2019-02-26T05:02:58.555Z,137.77
2019-02-26T05:05:28.546Z,131.10
2019-02-26T05:07:57.363Z,129.60
2019-02-26T05:10:27.013Z,124.87
2019-02-26T05:13:00.235Z,130.20
2019-02-26T05:15:31.121Z,125.77
2019-02-26T05:17:58.350Z,117.83
2019-02-26T05:20:26.904Z,131.90
2019-02-26T05:22:58.412Z,128.53
2019-02-26T05:25:26.246Z,131.40
2019-02-26T05:27:54.784Z,133.13
2019-02-26T05:30:23.466Z,127.03
2019-02-26T05:32:54.284Z,123.07
2019-02-26T05:35:23.409Z,125.03
2019-02-26T05:37:52.429Z,119.43
2019-02-26T05:40:22.254Z,125.27
2019-02-26T05:42:50.856Z,124.30
2019-02-26T05:45:21.517Z,119.40
2019-02-26T05:47:51.310Z,127.60
2019-02-26T05:50:19.945Z,127.93
2019-02-26T05:52:50.407Z,126.10
2019-02-26T05:55:20.722Z,117.93
2019-02-26T05:57:49.161Z,120.13
2019-02-26T06:00:21.580Z,129.33
2019-02-26T06:02:50.966Z,124.07
2019-02-26T06:05:20.555Z,125.97
2019-02-26T06:07:48.611Z,118.73
2019-02-26T06:10:19.443Z,122.47
2019-02-26T06:12:47.519Z,122.13
2019-02-26T06:15:20.201Z,119.53
2019-02-26T06:17:49.040Z,112.63
2019-02-26T06:20:23.667Z,114.30
2019-02-26T06:22:52.410Z,117.10
2019-02-26T06:25:24.458Z,118.47
2019-02-26T06:27:51.444Z,119.63
2019-02-26T06:30:19.993Z,113.90
2019-02-26T06:32:48.565Z,113.67
2019-02-26T06:35:19.416Z,122.33
2019-02-26T06:37:47.469Z,122.17
2019-02-26T06:40:17.181Z,115.33
2019-02-26T06:42:45.802Z,120.17
2019-02-26T06:45:16.580Z,124.87
2019-02-26T06:47:45.715Z,108.40
2019-02-26T06:50:16.565Z,121.23
2019-02-26T06:52:47.727Z,107.23
2019-02-26T06:55:15.895Z,111.07
2019-02-26T06:57:47.089Z,102.90
2019-02-26T07:00:16.861Z,109.57
2019-02-26T07:02:46.584Z,115.47
2019-02-26T07:05:15.398Z,115.07
2019-02-26T07:07:43.979Z,117.57
2019-02-26T07:10:18.460Z,114.27
2019-02-26T07:12:48.136Z,109.40
2019-02-26T07:15:16.393Z,106.90
2019-02-26T07:17:46.088Z,105.57
2019-02-26T07:20:15.098Z,102.33
2019-02-26T07:22:46.116Z,106.23
2019-02-26T07:25:16.473Z,105.90
2019-02-26T07:27:46.515Z,109.10
2019-02-26T07:30:15.193Z,108.33
2019-02-26T07:32:45.668Z,101.87
2019-02-26T07:35:16.629Z,109.80
2019-02-26T07:37:44.241Z,95.27
2019-02-26T07:40:15.650Z,102.57
2019-02-26T07:42:44.667Z,103.40
2019-02-26T07:45:15.311Z,111.27
2019-02-26T07:47:45.188Z,102.93
2019-02-26T07:50:14.983Z,109.23
2019-02-26T07:52:44.223Z,101.27
2019-02-26T07:55:15.355Z,88.73
2019-02-26T07:57:45.472Z,96.47
2019-02-26T08:00:16.425Z,94.73
2019-02-26T08:02:44.974Z,102.00
2019-02-26T08:05:13.589Z,99.43
2019-02-26T08:07:46.095Z,94.50
2019-02-26T08:10:16.986Z,96.40
2019-02-26T08:12:46.164Z,91.17
2019-02-26T08:15:15.590Z,89.97
2019-02-26T08:17:47.805Z,90.63
2019-02-26T08:20:15.137Z,82.77
2019-02-26T08:22:43.751Z,89.13
2019-02-26T08:25:13.125Z,89.87
2019-02-26T08:27:41.745Z,89.87
2019-02-26T08:30:14.800Z,90.37
2019-02-26T08:32:46.181Z,94.57
2019-02-26T08:35:18.121Z,88.50
2019-02-26T08:37:44.173Z,89.47
2019-02-26T08:40:14.947Z,82.53
2019-02-26T08:42:43.473Z,90.00
2019-02-26T08:45:18.275Z,91.93
2019-02-26T08:47:47.762Z,83.20
2019-02-26T08:50:16.458Z,84.07
2019-02-26T08:52:49.436Z,87.03
2019-02-26T08:55:18.402Z,81.73
2019-02-26T08:57:46.104Z,79.00
2019-02-26T09:00:21.540Z,84.10
2019-02-26T09:02:53.810Z,84.70
2019-02-26T09:05:20.306Z,78.30
2019-02-26T09:07:50.422Z,78.03
2019-02-26T09:10:21.287Z,72.40
2019-02-26T09:12:51.702Z,74.90
2019-02-26T09:15:20.469Z,71.37
2019-02-26T09:17:49.044Z,77.67
2019-02-26T09:20:21.288Z,70.70
2019-02-26T09:22:51.408Z,70.77
2019-02-26T09:25:22.746Z,67.57
2019-02-26T09:28:09.813Z,66.03
2019-02-26T09:30:40.734Z,66.07
2019-02-26T09:33:10.910Z,69.27
2019-02-26T09:35:39.078Z,65.10
2019-02-26T09:38:07.617Z,67.40
2019-02-26T09:40:36.329Z,67.53
2019-02-26T09:43:06.157Z,63.87
2019-02-26T09:45:34.809Z,67.13
2019-02-26T09:48:03.425Z,63.77
2019-02-26T09:50:32.176Z,61.83
2019-02-26T09:53:00.782Z,65.30
2019-02-26T09:55:29.408Z,62.57
2019-02-26T09:57:58.039Z,62.53
2019-02-26T10:00:29.322Z,60.67
2019-02-26T10:02:56.906Z,64.30
2019-02-26T10:05:25.483Z,66.83
2019-02-26T10:07:56.862Z,74.23
2019-02-26T10:10:27.607Z,62.60
2019-02-26T10:12:57.350Z,68.27
2019-02-26T10:15:24.873Z,65.60
2019-02-26T10:17:53.423Z,66.73
2019-02-26T10:20:27.892Z,60.70
2019-02-26T10:22:57.155Z,61.07
2019-02-26T10:25:27.945Z,63.23
2019-02-26T10:27:54.257Z,64.80
2019-02-26T10:30:23.047Z,62.13
2019-02-26T10:32:51.588Z,58.07
2019-02-26T10:35:32.396Z,64.07
2019-02-26T10:38:00.350Z,66.20
2019-02-26T10:40:35.218Z,65.40
2019-02-26T10:42:59.422Z,65.10
2019-02-26T10:45:36.009Z,66.67
2019-02-26T10:48:02.838Z,65.30
2019-02-26T10:50:32.160Z,62.20
2019-02-26T10:53:07.248Z,65.63
2019-02-26T10:55:38.136Z,68.10
2019-02-26T10:58:06.774Z,72.83
2019-02-26T11:00:34.793Z,68.97
2019-02-26T11:03:02.041Z,63.83
2019-02-26T11:05:30.844Z,69.43
2019-02-26T11:08:02.378Z,63.70
2019-02-26T11:10:29.755Z,64.43
2019-02-26T11:12:59.614Z,64.07
2019-02-26T11:15:32.741Z,73.00
2019-02-26T11:17:58.614Z,74.27
2019-02-26T11:20:28.272Z,66.23
2019-02-26T11:22:57.492Z,64.30
2019-02-26T11:25:27.410Z,64.97
2019-02-26T11:27:56.293Z,66.13
2019-02-26T11:30:29.364Z,61.20
2019-02-26T11:33:02.506Z,77.20
2019-02-26T11:35:29.269Z,70.17
2019-02-26T11:37:58.283Z,61.43
2019-02-26T11:40:30.379Z,63.07
2019-02-26T11:42:59.925Z,63.60
2019-02-26T11:45:28.199Z,68.23
2019-02-26T11:47:58.134Z,60.47
2019-02-26T11:50:28.498Z,66.77
2019-02-26T11:52:57.507Z,58.77
2019-02-26T11:55:28.613Z,60.77
2019-02-26T11:57:56.451Z,59.50
2019-02-26T12:00:35.974Z,59.57
2019-02-26T12:03:01.476Z,65.10
2019-02-26T12:05:33.430Z,58.57
2019-02-26T12:08:00.330Z,63.70
2019-02-26T12:10:31.835Z,56.93
2019-02-26T12:13:02.010Z,55.83
2019-02-26T12:15:30.127Z,58.10
2019-02-26T12:17:59.857Z,54.07
2019-02-26T12:20:28.405Z,58.23
2019-02-26T12:22:56.955Z,54.90
2019-02-26T12:25:25.570Z,56.40
2019-02-26T12:27:54.045Z,59.50
2019-02-26T12:30:23.792Z,59.03
2019-02-26T12:32:54.439Z,55.73
2019-02-26T12:35:22.742Z,57.17
2019-02-26T12:37:53.636Z,56.87
2019-02-26T12:40:23.358Z,51.87
2019-02-26T12:42:52.250Z,58.03
2019-02-26T12:45:21.773Z,52.83
2019-02-26T12:47:54.505Z,54.60
2019-02-26T12:50:27.256Z,53.20
2019-02-26T12:52:57.122Z,50.70
2019-02-26T12:55:31.219Z,46.93
2019-02-26T12:57:56.423Z,51.53
2019-02-26T13:00:26.294Z,49.47
2019-02-26T13:02:54.980Z,40.27
2019-02-26T13:05:23.669Z,49.90
2019-02-26T13:07:52.247Z,43.77
2019-02-26T13:10:24.673Z,47.53
2019-02-26T13:12:58.910Z,53.40
2019-02-26T13:15:23.770Z,48.97
2019-02-26T13:17:54.401Z,44.60
2019-02-26T13:20:24.022Z,47.77
2019-02-26T13:22:56.322Z,50.03
2019-02-26T13:25:26.864Z,44.53
2019-02-26T13:27:53.327Z,43.97
2019-02-26T13:30:25.709Z,49.00
2019-02-26T13:32:58.094Z,40.30
2019-02-26T13:35:24.939Z,41.47
2019-02-26T13:38:01.987Z,42.57
2019-02-26T13:40:37.896Z,43.53
2019-02-26T13:45:29.535Z,53.63
2019-02-26T13:48:01.328Z,47.63
2019-02-26T13:50:32.171Z,46.20
2019-02-26T13:53:00.839Z,46.30
2019-02-26T13:55:29.545Z,47.10
2019-02-26T13:57:58.143Z,50.63
2019-02-26T14:00:27.142Z,49.63
2019-02-26T14:02:55.821Z,48.53
2019-02-26T14:05:24.506Z,49.33
2019-02-26T14:07:53.188Z,53.40
2019-02-26T14:10:23.737Z,49.53
2019-02-26T14:12:52.544Z,47.93
2019-02-26T14:15:28.813Z,56.37
2019-02-26T14:17:57.441Z,49.73
2019-02-26T14:20:26.058Z,46.00
2019-02-26T14:22:54.637Z,46.03
2019-02-26T14:25:23.211Z,55.00
2019-02-26T14:27:51.924Z,51.50
2019-02-26T14:30:21.755Z,53.10
2019-02-26T14:32:50.375Z,57.43
2019-02-26T14:35:19.052Z,52.17
2019-02-26T14:37:47.705Z,46.40
2019-02-26T14:40:20.777Z,43.67
2019-02-26T14:42:49.465Z,50.97
2019-02-26T14:45:23.897Z,42.57
2019-02-26T14:47:52.652Z,52.13
2019-02-26T14:50:22.124Z,53.90
2019-02-26T14:52:50.689Z,51.53
2019-02-26T14:55:19.379Z,48.77
2019-02-26T14:57:48.174Z,44.90
2019-02-26T15:00:31.341Z,44.53
2019-02-26T15:03:00.130Z,42.17
2019-02-26T15:05:28.666Z,42.70
2019-02-26T15:07:57.242Z,44.57
2019-02-26T15:10:25.858Z,43.47
2019-02-26T15:12:54.709Z,40.53
2019-02-26T15:15:23.475Z,50.17
2019-02-26T15:17:52.050Z,50.23
2019-02-26T15:20:27.286Z,43.80
2019-02-26T15:22:55.870Z,44.33
2019-02-26T15:25:29.901Z,40.97
2019-02-26T15:28:04.965Z,43.57
2019-02-26T15:30:29.077Z,47.47
2019-02-26T15:32:57.688Z,56.67
2019-02-26T15:35:26.585Z,61.83
2019-02-26T15:37:55.229Z,57.70
2019-02-26T15:40:23.854Z,62.20
2019-02-26T15:42:55.517Z,55.87
2019-02-26T15:45:28.894Z,59.73
2019-02-26T15:47:58.065Z,59.23
2019-02-26T15:50:26.537Z,61.57
2019-02-26T15:52:55.187Z,67.40
2019-02-26T15:55:31.460Z,68.03
2019-02-26T15:58:03.073Z,68.20
2019-02-26T16:00:30.474Z,70.97
2019-02-26T16:03:00.009Z,69.27
2019-02-26T16:05:34.186Z,66.27
2019-02-26T16:08:02.795Z,67.43
2019-02-26T16:10:31.409Z,65.27
2019-02-26T16:13:05.909Z,73.83
2019-02-26T16:15:35.617Z,68.20
2019-02-26T16:18:04.302Z,66.57
2019-02-26T16:20:33.021Z,66.63
2019-02-26T16:23:01.702Z,74.80
2019-02-26T16:25:30.321Z,71.77
2019-02-26T16:27:58.969Z,69.47
2019-02-26T16:30:28.653Z,70.37
2019-02-26T16:32:57.272Z,66.60
2019-02-26T16:35:25.917Z,68.07
2019-02-26T16:37:54.533Z,72.87
2019-02-26T16:40:23.217Z,108.47
2019-02-26T16:42:51.943Z,97.27
2019-02-26T16:45:25.127Z,100.40
2019-02-26T16:47:53.919Z,74.33
2019-02-26T16:50:31.856Z,126.63
2019-02-26T16:53:01.142Z,77.67
2019-02-26T16:55:31.633Z,79.87
2019-02-26T16:58:03.170Z,80.37
2019-02-26T17:00:31.100Z,68.53
2019-02-26T17:03:00.757Z,90.30
2019-02-26T17:05:29.912Z,75.37
2019-02-26T17:07:58.799Z,73.07
2019-02-26T17:10:30.359Z,81.17
2019-02-26T17:13:01.971Z,74.83
2019-02-26T17:15:32.106Z,83.97
2019-02-26T17:18:00.829Z,89.47
2019-02-26T17:20:29.590Z,82.90
2019-02-26T17:22:58.214Z,91.27
2019-02-26T17:25:28.574Z,88.70
2019-02-26T17:27:57.324Z,78.63
2019-02-26T17:30:26.003Z,78.83
2019-02-26T17:32:54.693Z,72.93
2019-02-26T17:35:23.627Z,82.30
2019-02-26T17:37:52.332Z,78.33
2019-02-26T17:40:23.276Z,75.63
2019-02-26T17:42:51.961Z,75.40
2019-02-26T17:45:26.144Z,78.97
2019-02-26T17:47:56.821Z,82.17
2019-02-26T17:50:38.980Z,85.07
2019-02-26T17:53:07.938Z,78.73
2019-02-26T17:55:36.753Z,105.43
2019-02-26T17:58:09.788Z,109.27
2019-02-26T18:00:40.219Z,87.23
2019-02-26T18:03:08.859Z,89.80
2019-02-26T18:05:50.446Z,97.20
2019-02-26T18:08:07.869Z,99.10
2019-02-26T18:10:36.804Z,121.93
2019-02-26T18:13:05.471Z,108.93
2019-02-26T18:15:34.236Z,97.13
2019-02-26T18:18:02.875Z,102.43
2019-02-26T18:20:34.595Z,112.00
2019-02-26T18:23:03.215Z,97.10
2019-02-26T18:25:31.939Z,97.67
2019-02-26T18:28:00.590Z,100.43
2019-02-26T18:30:29.997Z,97.17
2019-02-26T18:32:59.310Z,98.03
2019-02-26T18:35:28.116Z,103.10
2019-02-26T18:37:56.747Z,108.10
2019-02-26T18:40:27.949Z,112.27
2019-02-26T18:42:55.754Z,111.57
2019-02-26T18:45:29.155Z,123.37
2019-02-26T18:47:57.912Z,174.00
2019-02-26T18:50:28.446Z,145.20
2019-02-26T18:52:58.298Z,159.47
2019-02-26T18:55:28.537Z,176.37
2019-02-26T18:57:57.687Z,186.80
2019-02-26T19:00:28.537Z,177.93
2019-02-26T19:02:57.160Z,162.77
2019-02-26T19:05:25.894Z,145.23
2019-02-26T19:07:54.446Z,142.80
2019-02-26T19:10:23.256Z,137.73
2019-02-26T19:12:51.913Z,168.90
2019-02-26T19:15:23.498Z,201.90
2019-02-26T19:17:53.899Z,173.50
2019-02-26T19:20:28.058Z,167.43
2019-02-26T19:23:02.519Z,154.57
2019-02-26T19:25:31.161Z,144.77
2019-02-26T19:27:59.780Z,132.57
2019-02-26T19:30:28.476Z,166.13
2019-02-26T19:32:57.076Z,182.10
2019-02-26T19:35:25.630Z,180.10
2019-02-26T19:37:56.801Z,164.83
2019-02-26T19:40:30.299Z,162.57
2019-02-26T19:42:59.258Z,174.70
2019-02-26T19:45:27.882Z,133.90
2019-02-26T19:47:56.622Z,207.73
2019-02-26T19:50:25.197Z,210.03
2019-02-26T19:52:57.064Z,217.77
2019-02-26T19:55:27.114Z,215.83
2019-02-26T19:57:55.764Z,153.87
2019-02-26T20:00:24.435Z,143.47
2019-02-26T20:02:53.005Z,172.10
2019-02-26T20:05:21.625Z,158.63
2019-02-26T20:07:50.294Z,130.80
2019-02-26T20:10:19.326Z,127.10
2019-02-26T20:12:47.948Z,134.53
2019-02-26T20:15:16.641Z,131.43
2019-02-26T20:17:48.995Z,137.63
2019-02-26T20:20:17.217Z,109.83
2019-02-26T20:22:45.924Z,119.23
2019-02-26T20:25:19.222Z,104.20
2019-02-26T20:27:47.850Z,103.47
2019-02-26T20:30:22.941Z,124.37
2019-02-26T20:35:26.238Z,118.90
2019-02-26T20:37:58.609Z,100.77
2019-02-26T20:40:25.345Z,95.07
2019-02-26T20:42:53.850Z,102.97
2019-02-26T20:45:22.866Z,89.37
2019-02-26T20:47:51.461Z,94.60
2019-02-26T20:50:21.389Z,96.27
2019-02-26T20:52:50.524Z,82.63
2019-02-26T20:55:21.610Z,92.50
2019-02-26T20:57:50.275Z,85.17
2019-02-26T21:00:24.945Z,89.07
2019-02-26T21:02:52.220Z,86.13
2019-02-26T21:05:20.887Z,88.90
2019-02-26T21:07:49.799Z,80.40
2019-02-26T21:10:19.567Z,69.23
2019-02-26T21:12:48.557Z,67.90
2019-02-26T21:15:24.765Z,72.40
2019-02-26T21:17:57.817Z,122.50
2019-02-26T21:20:23.751Z,125.63
2019-02-26T21:22:54.567Z,102.40
2019-02-26T21:25:22.433Z,84.20
2019-02-26T21:27:50.969Z,83.00
2019-02-26T21:30:21.549Z,79.80
2019-02-26T21:32:50.266Z,70.23
2019-02-26T21:35:20.651Z,84.37
2019-02-26T21:37:49.078Z,71.60
2019-02-26T21:40:17.822Z,67.53
2019-02-26T21:42:46.482Z,90.20
2019-02-26T21:45:18.620Z,95.87
2019-02-26T21:47:47.858Z,95.60
2019-02-26T21:50:16.739Z,80.37
2019-02-26T21:52:59.307Z,105.33
2019-02-26T21:55:16.305Z,99.00
2019-02-26T21:57:44.857Z,72.83
2019-02-26T22:00:20.463Z,70.37
2019-02-26T22:02:52.053Z,87.73
2019-02-26T22:05:19.357Z,76.10
2019-02-26T22:07:52.123Z,72.77
2019-02-26T22:10:20.517Z,66.50
2019-02-26T22:12:50.225Z,65.10
2019-02-26T22:15:18.839Z,61.60
2019-02-26T22:17:47.410Z,51.73
2019-02-26T22:20:35.408Z,53.70
2019-02-26T22:22:51.294Z,54.57
2019-02-26T22:25:20.152Z,53.67
2019-02-26T22:27:48.692Z,60.47
2019-02-26T22:30:21.471Z,62.07
2019-02-26T22:32:48.483Z,65.70
2019-02-26T22:35:17.100Z,60.30
2019-02-26T22:37:45.722Z,61.40
2019-02-26T22:40:15.165Z,58.57
2019-02-26T22:42:43.813Z,59.67
2019-02-26T22:45:15.427Z,58.37
2019-02-26T22:47:44.578Z,64.33
2019-02-26T22:50:14.532Z,65.50
2019-02-26T22:52:44.009Z,62.30
2019-02-26T22:55:17.619Z,62.10
2019-02-26T22:57:46.370Z,67.50
2019-02-26T23:00:50.841Z,77.20
2019-02-26T23:03:19.452Z,72.53
2019-02-26T23:05:48.137Z,74.13
2019-02-26T23:08:16.825Z,79.27
2019-02-26T23:10:45.642Z,70.70
2019-02-26T23:13:14.825Z,70.07
2019-02-26T23:15:45.917Z,69.17
2019-02-26T23:18:14.622Z,69.77
2019-02-26T23:20:43.394Z,71.93
2019-02-26T23:23:12.250Z,69.70
2019-02-26T23:25:41.803Z,66.07
2019-02-26T23:28:10.689Z,59.47
2019-02-26T23:30:39.940Z,63.90
2019-02-26T23:33:08.562Z,65.60
2019-02-26T23:35:37.846Z,63.83
2019-02-26T23:38:08.518Z,64.73
2019-02-26T23:40:36.931Z,60.87
2019-02-26T23:43:05.613Z,61.47
2019-02-26T23:45:34.558Z,63.47
2019-02-26T23:48:07.666Z,66.20
2019-02-26T23:50:33.452Z,66.57
2019-02-26T23:53:02.072Z,55.00
2019-02-26T23:55:30.685Z,61.30
2019-02-26T23:57:59.301Z,57.00
